Time;durP1;ratioP1;P1;durP2;ratioP2;P2;SDS_P1;SDS_P2;PMS_P1;PMS_P2;Temp;Humidity;BMP_temperature;BMP_pressure;BME280_temperature;BME280_humidity;BME280_pressure;Samples;Min_cycle;Max_cycle;Signal;HPM_P1;HPM_P2
2023/07/12 00:00:50;;;;;;;8.50;6.10;;;;;;;21.12;56.61;100007.71;129437;1269;107565;-73
2023/07/12 00:04:06;;;;;;;7.00;6.30;;;;;;;20.72;56.80;100018.58;129343;1270;108505;-73
2023/07/12 00:07:14;;;;;;;6.50;5.70;;;;;;;20.62;57.59;100026.61;129286;1268;107353;-75
2023/07/12 00:10:23;;;;;;;6.00;5.40;;;;;;;20.77;57.79;100028.63;129440;1272;107568;-76
2023/07/12 00:13:29;;;;;;;6.70;5.60;;;;;;;20.93;57.77;100028.77;129495;1274;107440;-75
2023/07/12 00:16:38;;;;;;;7.30;5.80;;;;;;;20.82;56.39;100011.27;129378;1268;107601;-75
2023/07/12 00:19:44;;;;;;;7.60;6.20;;;;;;;20.39;56.77;100009.34;129388;1267;109156;-75
2023/07/12 00:22:52;;;;;;;6.70;6.10;;;;;;;20.26;57.42;100000.26;129453;1268;108140;-74
2023/07/12 00:25:57;;;;;;;7.30;5.60;;;;;;;20.23;57.47;99996.54;129525;1273;107586;-73
2023/07/12 00:29:05;;;;;;;6.50;5.70;;;;;;;20.32;58.13;99996.08;129512;1270;107853;-74
2023/07/12 00:32:11;;;;;;;6.40;5.80;;;;;;;20.56;57.80;99977.58;129516;1270;107535;-73
2023/07/12 00:35:20;;;;;;;7.00;6.20;;;;;;;20.60;57.38;99963.77;129423;1274;107444;-73
2023/07/12 00:38:26;;;;;;;6.20;5.60;;;;;;;20.54;57.64;99967.91;129550;1268;106726;-73
2023/07/12 00:41:53;;;;;;;7.00;6.00;;;;;;;20.63;57.79;99963.78;129455;1283;143636;-73
2023/07/12 00:45:01;;;;;;;5.70;5.20;;;;;;;20.74;57.87;99958.22;129544;1270;107412;-73
2023/07/12 00:48:12;;;;;;;6.30;5.60;;;;;;;20.90;57.96;99963.17;129341;1268;107571;-73
2023/07/12 00:51:44;;;;;;;6.00;5.40;;;;;;;21.01;57.53;99962.70;129394;1270;107439;-73
2023/07/12 00:54:53;;;;;;;7.90;5.60;;;;;;;21.01;57.57;99960.48;129401;1270;107535;-73
2023/07/12 00:57:59;;;;;;;5.90;5.30;;;;;;;21.01;57.36;99960.05;129291;1273;107605;-73
2023/07/12 01:01:06;;;;;;;6.40;5.80;;;;;;;20.88;57.06;99960.73;129296;1270;108321;-73
2023/07/12 01:04:17;;;;;;;6.30;5.70;;;;;;;20.68;56.86;99958.18;129288;1280;107500;-73
2023/07/12 01:07:25;;;;;;;7.50;6.00;;;;;;;20.57;57.01;99952.11;129326;1268;107712;-73
2023/07/12 01:10:30;;;;;;;6.40;5.80;;;;;;;20.51;57.42;99942.88;129257;1272;106740;-73
2023/07/12 01:13:37;;;;;;;6.20;5.60;;;;;;;20.63;57.92;99936.09;129293;1268;108313;-74
2023/07/12 01:16:47;;;;;;;6.20;5.40;;;;;;;20.78;57.69;99929.86;129249;1274;106628;-73
2023/07/12 01:19:52;;;;;;;6.40;5.70;;;;;;;20.83;57.31;99928.80;129320;1273;105598;-73
2023/07/12 01:22:58;;;;;;;6.40;5.80;;;;;;;20.59;56.69;99928.95;129193;1273;107713;-73
2023/07/12 01:26:19;;;;;;;6.20;5.60;;;;;;;20.37;57.52;99930.53;129301;1272;107605;-73
2023/07/12 01:29:25;;;;;;;6.20;5.20;;;;;;;20.39;57.62;99927.88;129116;1274;107386;-73
2023/07/12 01:32:32;;;;;;;5.90;5.30;;;;;;;20.53;57.49;99926.71;129285;1272;106734;-72
2023/07/12 01:35:38;;;;;;;6.60;5.40;;;;;;;20.52;57.69;99923.02;129499;1273;105846;-73
2023/07/12 01:38:43;;;;;;;5.90;5.30;;;;;;;20.63;57.65;99922.29;129491;1273;107579;-73
2023/07/12 01:41:49;;;;;;;6.60;5.60;;;;;;;20.74;57.49;99919.06;129337;1271;106719;-73
2023/07/12 01:44:55;;;;;;;6.20;5.20;;;;;;;20.64;56.66;99917.35;129106;1268;107299;-73
2023/07/12 01:48:01;;;;;;;6.90;5.30;;;;;;;20.47;57.50;99921.83;129469;1268;107579;-73
2023/07/12 01:51:07;;;;;;;6.20;5.50;;;;;;;20.59;57.82;99925.16;129255;1280;107616;-75
2023/07/12 01:54:13;;;;;;;5.90;5.30;;;;;;;20.70;57.47;99923.41;129288;1284;107660;-74
2023/07/12 01:57:18;;;;;;;5.60;5.00;;;;;;;20.61;55.99;99921.55;129187;1268;106198;-73
2023/07/12 02:00:24;;;;;;;6.80;5.70;;;;;;;20.21;56.83;99918.77;129093;1272;107589;-73
2023/07/12 02:03:30;;;;;;;5.70;5.10;;;;;;;19.93;57.01;99922.71;129369;1273;105661;-73
2023/07/12 02:06:36;;;;;;;6.20;5.30;;;;;;;20.09;57.92;99921.36;129241;1273;108606;-73
2023/07/12 02:10:03;;;;;;;6.00;5.30;;;;;;;20.26;57.31;99918.55;129459;1273;107554;-73
2023/07/12 02:13:08;;;;;;;5.70;5.20;;;;;;;20.37;57.79;99916.93;129162;1268;107600;-73
2023/07/12 02:16:14;;;;;;;7.00;5.30;;;;;;;20.60;57.68;99907.63;129489;1273;107494;-74
2023/07/12 02:19:20;;;;;;;6.70;5.00;;;;;;;20.79;57.17;99901.04;129251;1273;107528;-75
2023/07/12 02:22:25;;;;;;;6.90;5.00;;;;;;;20.79;57.23;99900.27;129550;1274;107652;-73
2023/07/12 02:25:31;;;;;;;6.80;4.90;;;;;;;20.93;56.74;99889.11;129502;1273;108416;-73
2023/07/12 02:28:37;;;;;;;5.20;4.70;;;;;;;20.94;56.84;99887.22;129484;1274;108518;-73
2023/07/12 02:31:46;;;;;;;6.20;5.30;;;;;;;20.96;56.13;99885.39;129175;1273;107569;-76
2023/07/12 02:34:51;;;;;;;5.80;4.80;;;;;;;20.89;56.16;99892.09;129281;1274;107565;-73
2023/07/12 02:37:57;;;;;;;5.70;5.10;;;;;;;20.99;56.06;99888.06;129409;1274;107354;-76
2023/07/12 02:41:03;;;;;;;5.40;4.70;;;;;;;21.05;55.74;99888.45;129381;1273;107644;-71
2023/07/12 02:44:08;;;;;;;5.70;5.10;;;;;;;20.82;55.42;99887.22;129484;1268;106612;-71
2023/07/12 02:47:14;;;;;;;5.80;5.00;;;;;;;20.74;55.58;99888.20;129594;1273;106540;-71
2023/07/12 02:50:19;;;;;;;8.90;4.80;;;;;;;20.81;55.45;99892.08;129508;1273;107931;-71
2023/07/12 02:53:25;;;;;;;5.50;4.90;;;;;;;20.87;55.12;99888.48;129429;1274;107614;-71
2023/07/12 02:56:30;;;;;;;5.10;4.60;;;;;;;20.65;55.04;99885.48;129486;1272;107281;-71
2023/07/12 02:59:36;;;;;;;5.40;4.80;;;;;;;20.64;54.89;99884.98;129475;1273;107682;-71
2023/07/12 03:02:41;;;;;;;6.50;4.80;;;;;;;20.56;55.04;99881.39;129461;1272;106954;-71
2023/07/12 03:05:47;;;;;;;6.90;5.30;;;;;;;20.62;54.92;99881.89;129522;1272;107405;-71
2023/07/12 03:08:52;;;;;;;5.60;4.70;;;;;;;20.67;54.74;99881.44;129532;1273;107511;-71
2023/07/12 03:11:58;;;;;;;5.60;4.70;;;;;;;20.74;54.79;99878.23;129407;1273;107467;-71
2023/07/12 03:15:04;;;;;;;5.30;4.80;;;;;;;20.76;54.42;99880.83;129461;1273;107601;-71
2023/07/12 03:18:09;;;;;;;5.10;4.40;;;;;;;20.60;54.39;99879.56;129449;1268;108117;-71
2023/07/12 03:21:15;;;;;;;5.30;4.80;;;;;;;20.52;54.59;99872.80;129410;1272;107642;-71
2023/07/12 03:24:21;;;;;;;5.20;4.70;;;;;;;20.60;54.64;99875.48;129322;1279;107532;-72
2023/07/12 03:27:26;;;;;;;5.20;4.70;;;;;;;20.81;54.36;99870.17;129410;1272;107292;-74
2023/07/12 03:30:32;;;;;;;5.40;4.80;;;;;;;20.82;54.15;99861.14;129434;1279;108585;-73
2023/07/12 03:33:38;;;;;;;5.60;4.70;;;;;;;20.82;54.24;99851.92;129567;1272;107510;-71
2023/07/12 03:36:43;;;;;;;5.20;4.70;;;;;;;20.83;54.17;99840.11;129612;1274;107544;-72
2023/07/12 03:39:50;;;;;;;5.10;4.60;;;;;;;20.89;54.25;99837.85;129469;1273;107548;-71
2023/07/12 03:42:56;;;;;;;4.70;4.30;;;;;;;21.09;54.25;99837.54;129514;1272;106078;-72
2023/07/12 03:46:02;;;;;;;4.50;4.10;;;;;;;21.25;54.12;99835.62;129532;1271;107408;-72
2023/07/12 03:49:07;;;;;;;4.90;4.40;;;;;;;21.55;54.08;99831.71;129426;1273;107580;-72
2023/07/12 03:52:13;;;;;;;5.40;4.50;;;;;;;21.87;53.78;99830.14;129316;1272;107617;-73
2023/07/12 03:55:18;;;;;;;5.00;4.20;;;;;;;22.04;53.65;99823.80;129361;1279;107576;-76
2023/07/12 03:58:27;;;;;;;5.00;4.30;;;;;;;22.23;53.62;99826.44;129467;1273;107580;-73
2023/07/12 04:01:32;;;;;;;5.40;4.20;;;;;;;22.26;53.50;99819.95;129507;1274;107430;-73
2023/07/12 04:04:38;;;;;;;7.00;5.30;;;;;;;22.40;53.57;99814.90;129504;1280;106741;-75
2023/07/12 04:07:43;;;;;;;6.60;4.30;;;;;;;22.56;53.62;99810.21;129544;1268;107562;-72
2023/07/12 04:10:53;;;;;;;5.20;4.70;;;;;;;22.74;53.54;99810.15;129617;1274;107705;-72
2023/07/12 04:14:01;;;;;;;8.00;5.10;;;;;;;22.93;53.29;99807.28;129704;1272;108781;-73
2023/07/12 04:17:07;;;;;;;5.00;4.50;;;;;;;23.15;53.29;99806.88;129450;1274;107437;-74
2023/07/12 04:20:14;;;;;;;5.20;4.60;;;;;;;23.26;53.21;99808.52;129365;1272;107644;-74
2023/07/12 04:23:20;;;;;;;5.90;4.30;;;;;;;23.32;53.32;99809.04;129363;1273;107593;-73
2023/07/12 04:26:26;;;;;;;5.20;4.60;;;;;;;23.43;53.32;99812.10;129489;1273;107572;-74
2023/07/12 04:29:31;;;;;;;5.50;4.30;;;;;;;23.54;53.10;99815.21;129485;1277;107462;-74
2023/07/12 04:32:37;;;;;;;5.10;4.60;;;;;;;23.67;52.97;99809.19;129588;1271;107596;-73
2023/07/12 04:35:43;;;;;;;5.30;4.50;;;;;;;23.85;52.77;99798.02;129527;1273;107472;-71
2023/07/12 04:38:48;;;;;;;5.10;4.60;;;;;;;24.02;52.51;99787.88;129539;1274;107330;-71
2023/07/12 04:41:53;;;;;;;6.50;4.80;;;;;;;24.13;52.36;99778.87;129536;1268;107559;-73
2023/07/12 04:44:59;;;;;;;6.40;4.80;;;;;;;24.23;52.25;99782.15;129425;1281;107672;-74
2023/07/12 04:48:05;;;;;;;6.40;5.20;;;;;;;24.30;52.13;99784.84;129375;1270;107430;-72
2023/07/12 04:51:10;;;;;;;5.30;4.80;;;;;;;24.32;51.87;99779.40;129633;1271;107655;-72
2023/07/12 04:54:17;;;;;;;5.80;5.10;;;;;;;24.32;51.95;99778.20;129733;1273;107505;-72
2023/07/12 04:57:23;;;;;;;7.00;4.80;;;;;;;24.34;51.95;99776.70;129555;1273;107268;-72
2023/07/12 05:00:29;;;;;;;6.70;5.20;;;;;;;24.37;51.91;99768.40;129453;1273;107523;-72
2023/07/12 05:03:34;;;;;;;5.60;4.70;;;;;;;24.43;51.75;99770.32;129491;1273;107558;-72
2023/07/12 05:06:39;;;;;;;7.40;5.90;;;;;;;24.45;51.58;99770.61;129373;1270;107592;-72
2023/07/12 05:09:45;;;;;;;7.40;4.90;;;;;;;24.47;51.49;99765.39;129462;1273;107523;-72
2023/07/12 05:12:51;;;;;;;6.10;5.10;;;;;;;24.48;51.18;99763.92;129488;1272;107417;-72
2023/07/12 05:15:58;;;;;;;6.60;4.70;;;;;;;24.45;51.24;99767.02;129376;1279;107349;-73
2023/07/12 05:19:03;;;;;;;8.50;5.30;;;;;;;24.47;51.05;99766.81;129429;1268;106530;-73
2023/07/12 05:22:09;;;;;;;8.20;4.70;;;;;;;24.50;51.14;99768.18;129515;1274;107560;-73
2023/07/12 05:25:15;;;;;;;6.30;5.10;;;;;;;24.51;50.68;99769.16;129521;1281;108619;-71
2023/07/12 05:28:21;;;;;;;7.70;5.10;;;;;;;24.54;50.79;99761.58;129471;1270;108185;-73
2023/07/12 05:31:27;;;;;;;6.10;4.80;;;;;;;24.57;50.73;99756.74;129526;1273;107489;-73
2023/07/12 05:34:32;;;;;;;7.30;5.30;;;;;;;24.61;50.73;99759.90;129299;1280;107591;-72
2023/07/12 05:37:38;;;;;;;8.10;5.40;;;;;;;24.67;50.54;99758.75;129235;1274;106731;-72
2023/07/12 05:40:43;;;;;;;6.00;5.00;;;;;;;24.75;50.52;99758.34;129313;1273;107512;-72
2023/07/12 05:43:49;;;;;;;12.20;5.00;;;;;;;24.81;50.32;99758.23;129279;1272;107386;-72
2023/07/12 05:46:54;;;;;;;6.80;4.90;;;;;;;24.85;50.20;99763.98;129269;1273;108572;-72
2023/07/12 05:50:00;;;;;;;5.90;5.00;;;;;;;24.88;50.01;99767.61;129413;1274;107592;-72
2023/07/12 05:53:05;;;;;;;9.60;5.10;;;;;;;24.93;50.04;99775.13;129516;1272;107998;-72
2023/07/12 05:56:11;;;;;;;19.90;17.70;;;;;;;24.93;49.93;99776.83;129317;1273;107433;-72
2023/07/12 05:59:16;;;;;;;7.80;6.20;;;;;;;24.93;49.76;99780.92;129417;1281;106731;-72
2023/07/12 06:02:23;;;;;;;6.00;5.20;;;;;;;24.98;49.81;99779.33;129426;1273;108324;-72
2023/07/12 06:05:29;;;;;;;5.60;4.60;;;;;;;25.15;49.65;99776.71;129372;1271;107296;-72
2023/07/12 06:08:34;;;;;;;6.50;4.80;;;;;;;25.32;49.49;99775.25;129271;1273;107539;-72
2023/07/12 06:11:40;;;;;;;5.90;5.10;;;;;;;25.45;49.41;99771.19;129236;1281;108518;-72
2023/07/12 06:14:45;;;;;;;5.60;5.10;;;;;;;25.52;49.44;99766.80;129292;1268;107539;-72
2023/07/12 06:17:51;;;;;;;5.90;4.40;;;;;;;25.56;49.17;99763.01;129240;1267;107487;-72
2023/07/12 06:20:59;;;;;;;6.60;4.80;;;;;;;25.59;49.01;99762.96;129287;1280;106724;-72
2023/07/12 06:24:06;;;;;;;6.70;4.50;;;;;;;25.62;49.02;99763.47;129290;1280;107462;-72
2023/07/12 06:27:13;;;;;;;5.90;4.40;;;;;;;25.65;48.85;99761.80;129365;1272;107551;-72
2023/07/12 06:30:20;;;;;;;5.30;4.50;;;;;;;25.73;48.65;99758.29;129471;1279;107430;-72
2023/07/12 06:33:25;;;;;;;4.40;4.40;;;;;;;25.83;48.62;99753.25;129289;1273;107471;-72
2023/07/12 06:36:31;;;;;;;7.40;4.50;;;;;;;25.89;48.30;99753.77;129343;1267;107668;-72
2023/07/12 06:39:37;;;;;;;6.00;4.60;;;;;;;25.94;48.41;99750.16;129413;1273;107425;-72
2023/07/12 06:42:43;;;;;;;7.10;4.50;;;;;;;26.03;47.88;99742.47;129310;1274;107582;-72
2023/07/12 06:45:49;;;;;;;6.40;4.30;;;;;;;26.08;47.82;99735.17;129496;1272;107554;-72
2023/07/12 06:48:54;;;;;;;6.00;4.30;;;;;;;26.14;47.80;99732.39;129466;1274;107440;-72
2023/07/12 06:52:00;;;;;;;5.00;4.10;;;;;;;26.21;47.27;99729.96;129329;1267;107280;-71
2023/07/12 06:55:06;;;;;;;4.70;4.10;;;;;;;26.26;47.17;99727.67;129306;1280;107631;-72
2023/07/12 06:58:12;;;;;;;7.60;4.30;;;;;;;26.31;47.27;99725.88;129271;1268;107549;-74
2023/07/12 07:01:17;;;;;;;4.80;3.90;;;;;;;26.34;47.04;99721.49;129549;1273;106757;-72
2023/07/12 07:04:23;;;;;;;5.50;4.40;;;;;;;26.39;46.91;99712.42;129460;1274;107595;-73
2023/07/12 07:07:30;;;;;;;6.70;4.00;;;;;;;26.49;46.50;99706.14;129444;1272;107519;-72
2023/07/12 07:10:35;;;;;;;4.90;4.10;;;;;;;26.57;46.37;99693.70;129239;1273;107572;-72
2023/07/12 07:13:41;;;;;;;4.70;4.20;;;;;;;26.63;46.15;99685.67;129290;1273;107478;-72
2023/07/12 07:16:47;;;;;;;6.60;4.50;;;;;;;26.68;46.11;99680.25;129477;1267;107617;-73
2023/07/12 07:19:52;;;;;;;4.60;3.90;;;;;;;26.71;45.44;99682.33;129533;1273;107565;-72
2023/07/12 07:22:58;;;;;;;5.30;3.60;;;;;;;26.71;45.29;99676.36;129479;1274;107559;-72
2023/07/12 07:26:06;;;;;;;6.20;4.00;;;;;;;26.74;45.35;99670.13;129499;1267;107742;-72
2023/07/12 07:29:12;;;;;;;4.10;3.60;;;;;;;26.79;44.88;99667.98;129325;1272;107659;-72
2023/07/12 07:32:17;;;;;;;6.20;3.90;;;;;;;26.79;44.83;99664.22;129340;1267;108051;-72
2023/07/12 07:35:23;;;;;;;4.70;3.90;;;;;;;26.81;44.46;99667.33;129303;1273;107283;-73
2023/07/12 07:38:29;;;;;;;4.90;3.40;;;;;;;26.90;44.53;99668.09;129392;1267;107574;-72
2023/07/12 07:41:35;;;;;;;6.00;3.80;;;;;;;26.97;43.91;99666.00;129314;1274;107450;-72
2023/07/12 07:44:40;;;;;;;4.10;3.70;;;;;;;26.97;43.76;99663.15;129347;1274;107594;-72
2023/07/12 07:47:46;;;;;;;4.00;3.50;;;;;;;27.00;43.75;99653.50;129451;1272;108026;-72
2023/07/12 07:50:52;;;;;;;4.20;3.80;;;;;;;27.10;43.76;99642.85;129420;1267;107576;-74
2023/07/12 07:53:57;;;;;;;5.00;4.00;;;;;;;27.12;43.37;99639.02;129461;1275;107672;-73
2023/07/12 07:57:03;;;;;;;4.10;3.70;;;;;;;27.20;43.52;99635.98;129348;1281;107448;-72
2023/07/12 08:00:13;;;;;;;5.00;3.70;;;;;;;27.26;43.36;99631.84;129418;1273;107433;-74
2023/07/12 08:03:19;;;;;;;5.60;4.00;;;;;;;27.28;43.24;99632.48;129609;1274;108278;-73
2023/07/12 08:06:25;;;;;;;3.90;3.60;;;;;;;27.32;42.98;99632.75;129519;1273;107544;-72
2023/07/12 08:09:31;;;;;;;4.40;3.80;;;;;;;27.38;42.86;99630.04;129702;1280;105931;-73
2023/07/12 08:12:37;;;;;;;3.50;3.20;;;;;;;27.41;42.55;99616.21;129458;1279;107551;-73
2023/07/12 08:15:44;;;;;;;4.50;3.40;;;;;;;27.40;42.28;99612.27;129459;1273;107442;-73
2023/07/12 08:18:49;;;;;;;5.40;3.50;;;;;;;27.38;42.20;99604.34;129379;1273;107486;-72
2023/07/12 08:21:55;;;;;;;4.00;3.60;;;;;;;27.34;41.84;99596.89;129435;1277;108008;-73
2023/07/12 08:25:00;;;;;;;4.20;3.60;;;;;;;27.34;42.00;99597.89;129531;1273;107592;-74
2023/07/12 08:28:06;;;;;;;4.60;3.70;;;;;;;27.30;41.96;99598.45;129573;1273;107536;-73
2023/07/12 08:31:11;;;;;;;4.50;3.50;;;;;;;27.31;42.15;99597.41;129565;1271;107461;-73
2023/07/12 08:34:17;;;;;;;4.00;3.60;;;;;;;27.37;41.84;99595.08;129742;1267;107540;-73
2023/07/12 08:37:23;;;;;;;4.50;3.40;;;;;;;27.38;41.47;99592.77;129516;1268;107194;-74
2023/07/12 08:40:29;;;;;;;6.00;3.50;;;;;;;27.36;41.33;99586.88;129688;1274;107232;-74
2023/07/12 08:43:35;;;;;;;6.50;3.50;;;;;;;27.35;41.01;99585.93;129807;1267;107570;-75
2023/07/12 08:46:48;;;;;;;4.20;3.60;;;;;;;27.22;41.30;99599.50;129424;1274;107595;-73
2023/07/12 08:49:54;;;;;;;4.70;3.40;;;;;;;27.14;41.24;99598.10;129683;1272;107673;-73
2023/07/12 08:53:00;;;;;;;4.00;3.60;;;;;;;27.19;41.12;99581.32;129576;1272;105830;-73
2023/07/12 08:56:12;;;;;;;4.60;3.40;;;;;;;27.21;41.15;99576.11;129594;1273;107284;-73
2023/07/12 08:59:19;;;;;;;4.30;3.50;;;;;;;27.19;41.08;99566.59;129661;1274;105760;-73
2023/07/12 09:02:26;;;;;;;5.10;3.10;;;;;;;27.18;41.06;99564.29;129527;1274;107543;-74
2023/07/12 09:05:35;;;;;;;4.40;3.70;;;;;;;27.22;41.11;99560.48;129583;1271;107698;-73
2023/07/12 09:08:45;;;;;;;5.00;3.30;;;;;;;27.25;40.85;99556.66;129443;1274;109267;-73
2023/07/12 09:11:51;;;;;;;4.50;3.70;;;;;;;27.28;40.82;99555.56;129581;1267;107297;-74
2023/07/12 09:15:03;;;;;;;4.10;3.70;;;;;;;27.25;40.73;99546.42;129557;1274;107563;-75
2023/07/12 09:18:23;;;;;;;4.80;3.50;;;;;;;27.20;40.79;99548.67;129548;1267;107292;-74
2023/07/12 09:21:31;;;;;;;3.50;3.20;;;;;;;27.22;40.58;99540.84;129436;1267;107592;-74
2023/07/12 09:24:44;;;;;;;3.50;3.20;;;;;;;27.32;40.56;99540.76;129488;1274;107372;-74
2023/07/12 09:27:50;;;;;;;4.40;3.40;;;;;;;27.39;39.47;99530.25;129454;1268;107308;-74
2023/07/12 09:31:10;;;;;;;4.00;3.40;;;;;;;27.55;39.91;99523.59;129497;1274;107571;-74
2023/07/12 09:34:22;;;;;;;4.10;3.30;;;;;;;27.50;39.83;99525.59;129509;1273;107398;-74
2023/07/12 09:37:34;;;;;;;4.60;3.60;;;;;;;27.57;39.82;99525.92;129492;1267;107591;-74
2023/07/12 09:40:43;;;;;;;4.00;3.30;;;;;;;27.69;39.54;99528.48;129598;1273;107521;-74
2023/07/12 09:43:54;;;;;;;4.10;3.70;;;;;;;27.72;39.68;99526.09;129521;1267;107526;-74
2023/07/12 09:47:08;;;;;;;3.80;3.40;;;;;;;27.76;39.58;99513.14;129350;1273;107263;-75
2023/07/12 09:50:22;;;;;;;4.30;3.50;;;;;;;27.81;39.40;99516.55;129377;1267;107467;-74
2023/07/12 09:53:37;;;;;;;3.60;3.30;;;;;;;27.88;39.72;99504.34;129489;1274;107471;-75
2023/07/12 09:56:49;;;;;;;4.10;3.50;;;;;;;27.92;39.29;99499.40;129514;1273;107565;-74
2023/07/12 10:00:01;;;;;;;3.70;3.40;;;;;;;27.95;39.41;99486.05;129507;1267;108017;-74
2023/07/12 10:03:15;;;;;;;4.30;3.60;;;;;;;28.06;39.25;99479.38;129388;1268;107308;-74
2023/07/12 10:06:32;;;;;;;5.60;3.90;;;;;;;28.15;38.89;99476.31;129447;1273;106149;-75
2023/07/12 10:09:38;;;;;;;5.90;3.70;;;;;;;28.19;39.05;99481.42;129535;1267;107585;-74
2023/07/12 10:12:52;;;;;;;4.60;4.20;;;;;;;28.21;39.24;99470.19;129479;1273;108491;-74
2023/07/12 10:15:58;;;;;;;5.40;4.20;;;;;;;28.24;38.94;99468.27;129343;1273;107405;-74
2023/07/12 10:19:06;;;;;;;5.10;4.10;;;;;;;28.31;38.93;99461.73;129380;1267;107570;-74
2023/07/12 10:22:23;;;;;;;4.30;3.90;;;;;;;28.39;38.93;99469.73;129390;1274;106740;-74
2023/07/12 10:25:32;;;;;;;4.70;4.00;;;;;;;28.39;38.87;99466.32;129408;1267;107998;-74
2023/07/12 10:28:46;;;;;;;4.60;4.20;;;;;;;28.37;38.86;99464.64;129249;1272;108161;-73
2023/07/12 10:31:56;;;;;;;4.80;4.30;;;;;;;28.44;38.79;99463.95;129288;1267;107074;-73
2023/07/12 10:35:17;;;;;;;4.60;4.20;;;;;;;28.52;38.92;99466.25;129551;1267;107532;-73
2023/07/12 10:38:23;;;;;;;4.80;4.30;;;;;;;28.60;39.02;99457.94;129426;1267;107460;-74
2023/07/12 10:41:33;;;;;;;4.50;4.10;;;;;;;28.72;38.84;99457.45;129307;1274;107840;-74
2023/07/12 10:44:44;;;;;;;6.20;3.90;;;;;;;28.77;39.02;99451.25;129447;1273;107588;-74
2023/07/12 10:47:52;;;;;;;4.90;3.80;;;;;;;28.90;38.68;99442.08;129616;1269;107591;-73
2023/07/12 10:51:15;;;;;;;4.60;4.10;;;;;;;28.86;38.62;99430.71;129478;1273;107487;-73
2023/07/12 10:54:51;;;;;;;4.40;4.00;;;;;;;28.84;38.55;99426.23;129588;1273;107518;-73
2023/07/12 10:58:23;;;;;;;4.40;4.00;;;;;;;28.90;38.75;99417.86;129643;1267;107261;-73
2023/07/12 11:01:48;;;;;;;;;;;;;;;29.03;38.57;99417.58;129607;1275;107299;-76
2023/07/12 11:04:54;;;;;;;6.00;4.40;;;;;;;29.04;38.59;99429.87;129490;1272;107598;-74
2023/07/12 11:08:03;;;;;;;4.90;4.50;;;;;;;29.14;38.51;99428.25;129405;1273;107624;-74
2023/07/12 11:11:30;;;;;;;5.80;4.70;;;;;;;29.23;38.44;99428.26;129347;1281;105897;-74
2023/07/12 11:14:53;;;;;;;4.90;3.90;;;;;;;29.26;38.24;99426.71;129300;1273;107256;-74
2023/07/12 11:18:21;;;;;;;5.30;4.60;;;;;;;29.35;38.46;99425.05;129312;1274;107413;-74
2023/07/12 11:21:47;;;;;;;4.60;4.20;;;;;;;29.49;38.48;99430.94;129308;1273;107549;-75
2023/07/12 11:25:01;;;;;;;5.20;4.70;;;;;;;29.52;38.19;99429.99;129243;1273;107524;-73
2023/07/12 11:28:25;;;;;;;5.20;4.70;;;;;;;29.51;38.31;99429.31;129321;1267;107578;-75
2023/07/12 11:31:33;;;;;;;5.00;4.50;;;;;;;29.62;38.10;99429.78;129425;1267;107600;-75
2023/07/12 11:34:49;;;;;;;5.20;4.70;;;;;;;29.66;37.94;99437.31;129530;1273;107594;-76
2023/07/12 11:37:57;;;;;;;5.90;4.40;;;;;;;29.54;37.82;99441.68;129701;1270;108780;-74
2023/07/12 11:41:07;;;;;;;5.30;4.70;;;;;;;29.48;38.00;99441.88;129786;1267;109084;-74
2023/07/12 11:44:17;;;;;;;5.60;4.80;;;;;;;29.55;38.10;99448.65;129706;1271;107477;-74
2023/07/12 11:47:23;;;;;;;5.20;4.70;;;;;;;29.70;38.33;99450.45;129429;1272;105829;-76
2023/07/12 11:50:30;;;;;;;5.90;4.80;;;;;;;29.81;38.14;99448.75;129607;1274;107818;-74
2023/07/12 11:53:35;;;;;;;6.10;5.00;;;;;;;29.81;37.95;99445.30;129598;1270;105859;-74
2023/07/12 11:56:44;;;;;;;6.10;5.20;;;;;;;29.79;38.18;99441.48;129570;1267;107456;-75
2023/07/12 11:59:52;;;;;;;5.90;5.30;;;;;;;29.87;38.15;99446.45;129542;1270;107530;-74
2023/07/12 12:02:59;;;;;;;6.00;5.40;;;;;;;29.89;38.35;99449.17;129384;1273;107449;-75
2023/07/12 12:06:05;;;;;;;6.40;5.80;;;;;;;29.89;38.47;99442.40;129586;1267;108667;-75
2023/07/12 12:09:11;;;;;;;6.50;5.80;;;;;;;29.94;38.47;99438.14;129530;1270;107738;-75
2023/07/12 12:12:21;;;;;;;6.50;5.70;;;;;;;29.87;38.64;99444.73;129509;1267;107423;-74
2023/07/12 12:15:30;;;;;;;7.10;6.10;;;;;;;29.74;38.53;99458.42;129511;1267;107526;-76
2023/07/12 12:18:37;;;;;;;7.30;6.20;;;;;;;29.52;38.80;99466.67;129395;1267;107627;-74
2023/07/12 12:21:50;;;;;;;6.40;5.80;;;;;;;29.29;38.81;99464.71;129476;1273;107570;-74
2023/07/12 12:24:58;;;;;;;10.10;6.60;;;;;;;29.08;39.17;99459.86;129534;1267;107286;-74
2023/07/12 12:28:16;;;;;;;8.70;5.70;;;;;;;28.98;39.21;99457.67;129561;1272;107563;-74
2023/07/12 12:31:23;;;;;;;6.70;6.00;;;;;;;28.88;39.20;99451.77;129492;1268;107586;-74
2023/07/12 12:34:36;;;;;;;7.10;6.30;;;;;;;28.75;39.64;99449.68;129568;1273;107524;-75
2023/07/12 12:37:53;;;;;;;7.10;6.40;;;;;;;28.61;39.85;99449.80;129474;1268;107585;-74
2023/07/12 12:41:10;;;;;;;7.00;6.20;;;;;;;28.43;39.91;99447.05;129281;1274;364710;-74
2023/07/12 12:44:20;;;;;;;7.10;6.40;;;;;;;28.30;40.08;99449.06;129533;1273;107499;-74
2023/07/12 12:47:28;;;;;;;7.50;5.80;;;;;;;28.14;40.24;99453.06;129612;1267;107385;-74
2023/07/12 12:50:34;;;;;;;6.40;5.80;;;;;;;28.01;40.36;99450.28;129575;1267;107527;-74
2023/07/12 12:53:39;;;;;;;8.00;6.00;;;;;;;27.90;40.28;99454.22;129430;1271;107359;-74
2023/07/12 12:56:46;;;;;;;14.30;6.30;;;;;;;27.82;40.52;99454.20;129461;1267;107523;-74
2023/07/12 12:59:51;;;;;;;8.30;6.50;;;;;;;27.71;40.73;99453.91;129525;1271;107581;-74
2023/07/12 13:02:57;;;;;;;7.30;6.30;;;;;;;27.63;41.34;99458.80;129401;1268;107267;-74
2023/07/12 13:06:03;;;;;;;8.20;6.90;;;;;;;27.57;41.74;99462.29;129375;1273;107647;-74
2023/07/12 13:09:18;;;;;;;9.50;7.00;;;;;;;27.53;41.97;99458.05;129558;1270;107525;-74
2023/07/12 13:12:27;;;;;;;8.00;7.00;;;;;;;27.49;42.12;99456.21;129512;1271;107482;-74
2023/07/12 13:15:33;;;;;;;8.30;6.20;;;;;;;27.47;42.53;99457.72;129479;1270;107433;-74
2023/07/12 13:18:39;;;;;;;8.60;6.90;;;;;;;27.42;42.88;99454.39;129384;1272;107272;-74
2023/07/12 13:21:45;;;;;;;7.30;6.40;;;;;;;27.37;42.53;99460.79;129419;1273;107575;-74
2023/07/12 13:24:52;;;;;;;8.10;6.70;;;;;;;27.33;42.70;99462.19;129444;1270;107590;-74
2023/07/12 13:27:58;;;;;;;8.60;6.80;;;;;;;27.30;43.12;99463.18;129422;1273;107520;-74
2023/07/12 13:31:04;;;;;;;7.80;6.50;;;;;;;27.30;43.17;99461.92;129623;1268;108154;-73
2023/07/12 13:34:10;;;;;;;8.90;6.60;;;;;;;27.31;43.54;99458.80;129561;1273;107415;-73
2023/07/12 13:37:19;;;;;;;7.50;6.70;;;;;;;27.34;43.66;99455.45;129501;1267;109347;-75
2023/07/12 13:40:25;;;;;;;8.70;7.20;;;;;;;27.42;43.65;99448.11;129629;1273;107639;-74
2023/07/12 13:43:30;;;;;;;9.20;6.70;;;;;;;27.55;43.43;99438.09;129487;1267;108121;-73
2023/07/12 13:46:36;;;;;;;7.50;6.30;;;;;;;27.63;43.24;99440.77;129399;1269;107424;-74
2023/07/12 13:49:42;;;;;;;8.90;7.00;;;;;;;27.69;43.71;99445.15;129314;1272;107552;-73
2023/07/12 13:52:47;;;;;;;10.90;7.00;;;;;;;27.73;44.26;99455.16;129442;1267;107331;-75
2023/07/12 13:55:53;;;;;;;7.30;6.30;;;;;;;27.66;44.76;99466.02;129574;1268;107734;-76
2023/07/12 13:58:59;;;;;;;9.70;6.90;;;;;;;27.44;45.16;99462.48;129578;1270;107693;-73
2023/07/12 14:02:16;;;;;;;8.10;6.70;;;;;;;27.18;46.31;99468.39;129344;1273;107568;-73
2023/07/12 14:05:22;;;;;;;13.00;7.10;;;;;;;26.87;46.95;99468.47;129402;1273;107568;-72
2023/07/12 14:08:27;;;;;;;7.70;6.60;;;;;;;26.61;47.50;99473.98;129281;1270;107569;-72
2023/07/12 14:11:35;;;;;;;9.90;7.00;;;;;;;26.33;48.86;99482.30;129467;1267;107592;-72
2023/07/12 14:14:41;;;;;;;9.50;7.50;;;;;;;26.09;49.08;99487.35;129442;1268;107073;-72
2023/07/12 14:17:47;;;;;;;8.90;7.20;;;;;;;25.92;49.05;99495.10;129288;1270;107575;-72
2023/07/12 14:20:53;;;;;;;9.30;7.20;;;;;;;25.80;49.68;99497.01;129434;1267;107293;-72
2023/07/12 14:23:59;;;;;;;8.70;7.10;;;;;;;25.70;50.20;99502.73;129551;1270;107440;-73